Alabaster, Alabama
Current Conditions -  °F | °C
As of 7:53 AM on Wednesday 22 Oct 2014 (Local Time) from KEET Reporting Station
Clear Clear  
Wind Chill: 55°   Ceiling: Unl
Heat Index: 55°   Visibility: 10mi
Dew Point: 44°   Wind: 0mph
Humidity: 67%   Direction: NA
Pressure: 30.15"   Gusts: NA
Location:  33.25°N, 86.82°W
Report Text: KEET 221253Z AUTO 00000KT 10SM CLR 13/07 A3015 RMK AO2 SLP206 T01280067
Loading
Personal Weather Stations






























Interactive Weather Map
Tropical Storm Tracking
New forecast layout! Learn more

10-Day Weather Forecast

Advertisements
Track Severe Weather on mobile